Time;durP1;ratioP1;P1;durP2;ratioP2;P2;SDS_P1;SDS_P2;PMS_P1;PMS_P2;Temp;Humidity;BMP_temperature;BMP_pressure;BME280_temperature;BME280_humidity;BME280_pressure;Samples;Min_cycle;Max_cycle;Signal;HPM_P1;HPM_P2
2023/01/28 00:01:50;;;;;;;12.15;7.13;;;;;;;5.80;71.72;101229.88;12794166;22;96952;-80
2023/01/28 00:06:53;;;;;;;13.30;7.33;;;;;;;5.67;72.90;101236.03;12793617;22;96478;-81
2023/01/28 00:11:57;;;;;;;12.25;7.45;;;;;;;5.53;72.30;101236.09;12794567;22;96613;-80
2023/01/28 00:17:05;;;;;;;14.57;9.98;;;;;;;5.58;72.38;101241.28;12793503;22;96659;-80
2023/01/28 00:22:08;;;;;;;9.02;6.03;;;;;;;5.52;73.18;101233.47;12793225;22;96829;-80
2023/01/28 00:27:11;;;;;;;10.52;7.28;;;;;;;5.51;72.85;101222.16;12792251;22;96659;-80
2023/01/28 00:32:16;;;;;;;10.80;7.03;;;;;;;5.52;72.40;101229.13;12793058;22;96616;-80
2023/01/28 00:37:19;;;;;;;9.93;5.93;;;;;;;5.50;72.26;101223.03;12793513;22;97082;-80
2023/01/28 00:42:22;;;;;;;10.45;6.28;;;;;;;5.29;72.63;101194.41;12793552;22;96836;-80
2023/01/28 00:47:27;;;;;;;12.85;9.98;;;;;;;4.93;74.02;101228.38;12792874;22;96501;-80
2023/01/28 00:52:30;;;;;;;11.50;6.77;;;;;;;4.78;74.84;101217.97;12792561;22;96621;-80
2023/01/28 00:57:33;;;;;;;10.25;6.30;;;;;;;4.86;74.14;101231.88;12793380;22;96819;-80
2023/01/28 01:02:37;;;;;;;8.85;6.20;;;;;;;4.74;74.26;101246.69;12793812;22;96559;-80
2023/01/28 01:07:44;;;;;;;13.57;8.65;;;;;;;4.82;74.32;101229.28;12792526;22;96515;-80
2023/01/28 01:12:47;;;;;;;9.68;5.55;;;;;;;4.80;74.95;101254.47;12792943;22;97366;-80
2023/01/28 01:17:52;;;;;;;9.73;6.13;;;;;;;4.57;74.65;101249.25;12791198;22;96786;-80
2023/01/28 01:22:56;;;;;;;7.97;5.80;;;;;;;4.83;74.08;101231.88;12792231;22;96562;-80
2023/01/28 01:27:59;;;;;;;11.63;6.90;;;;;;;4.88;74.43;101237.13;12791732;22;96665;-80
2023/01/28 01:33:04;;;;;;;8.40;5.45;;;;;;;4.92;73.72;101234.50;12792430;22;96583;-80
2023/01/28 01:38:08;;;;;;;8.87;5.43;;;;;;;4.92;73.77;101234.50;12792209;22;96704;-80
2023/01/28 01:43:16;;;;;;;9.43;4.78;;;;;;;4.93;73.65;101237.97;12793857;22;96573;-80
2023/01/28 01:48:25;;;;;;;8.60;5.43;;;;;;;4.84;74.48;101238.84;12794961;22;96582;-80
2023/01/28 01:53:31;;;;;;;9.32;5.30;;;;;;;4.96;73.08;101231.00;12795727;22;96880;-80
2023/01/28 01:58:40;;;;;;;8.65;5.07;;;;;;;4.66;74.92;101251.00;12795445;22;96987;-80
2023/01/28 02:03:51;;;;;;;8.45;4.95;;;;;;;4.46;74.70;101241.44;12795195;22;96565;-80
2023/01/28 02:08:55;;;;;;;8.00;4.47;;;;;;;4.56;75.11;101247.53;12793648;22;96618;-80
2023/01/28 02:14:01;;;;;;;8.13;4.68;;;;;;;4.51;74.79;101238.84;12794959;22;96658;-80
2023/01/28 02:19:07;;;;;;;6.55;4.97;;;;;;;4.66;74.57;101240.56;12794718;22;96761;-80
2023/01/28 02:24:29;;;;;;;7.97;4.80;;;;;;;4.57;74.58;101251.88;12794926;22;96661;-80
2023/01/28 02:29:42;;;;;;;7.57;4.35;;;;;;;4.58;74.39;101257.97;12794531;22;96701;-80
2023/01/28 02:34:51;;;;;;;9.95;4.60;;;;;;;4.42;74.78;101244.06;12794839;22;96577;-80
2023/01/28 02:40:00;;;;;;;7.50;5.22;;;;;;;4.51;74.79;101246.69;12794927;22;96568;-80
2023/01/28 02:45:15;;;;;;;6.63;4.40;;;;;;;4.50;75.07;101248.41;12795795;22;96952;-80
2023/01/28 02:50:19;;;;;;;;;;;;;;;4.44;75.71;101255.34;12794749;22;99203;-80
2023/01/28 02:55:35;;;;;;;5.85;4.25;;;;;;;4.39;74.63;101250.13;12794515;22;96664;-80
2023/01/28 03:00:49;;;;;;;6.72;4.20;;;;;;;4.24;74.54;101260.53;12793527;22;96673;-80
2023/01/28 03:06:05;;;;;;;8.75;4.43;;;;;;;4.15;76.05;101255.28;12794538;22;96621;-80
2023/01/28 03:38:17;;;;;;;5.63;3.70;;;;;;;3.72;77.20;101261.22;12795060;22;96510;-80
2023/01/28 03:43:20;;;;;;;6.65;3.88;;;;;;;3.64;78.03;101270.75;12794282;22;96570;-80
2023/01/28 03:48:27;;;;;;;6.70;3.95;;;;;;;3.56;78.42;101267.25;12794054;22;97003;-80
2023/01/28 03:53:30;;;;;;;6.35;3.90;;;;;;;3.59;78.88;101267.25;12792646;22;97079;-80
2023/01/28 03:58:51;;;;;;;7.18;4.32;;;;;;;3.49;79.74;101281.09;12794198;22;96563;-80
2023/01/28 04:03:56;;;;;;;5.43;3.78;;;;;;;3.52;78.98;101277.63;12793369;22;96548;-80
2023/01/28 04:08:59;;;;;;;5.63;3.90;;;;;;;3.52;78.87;101278.50;12793669;22;96604;-80
2023/01/28 04:14:02;;;;;;;9.35;3.90;;;;;;;3.39;78.66;101271.47;12793991;22;96576;-80
2023/01/28 04:19:07;;;;;;;5.43;3.80;;;;;;;3.41;78.79;101274.97;12793208;22;97467;-80
2023/01/28 04:24:10;;;;;;;5.27;3.80;;;;;;;3.34;79.35;101273.19;12793725;22;96772;-80
2023/01/28 04:29:14;;;;;;;5.15;3.80;;;;;;;3.30;79.74;101266.25;12794246;22;96679;-80
2023/01/28 04:34:19;;;;;;;5.38;4.07;;;;;;;3.33;79.05;101268.84;12793715;22;96764;-80
2023/01/28 04:39:22;;;;;;;5.63;3.45;;;;;;;3.38;78.86;101267.16;12793477;22;96579;-80
2023/01/28 04:44:25;;;;;;;5.53;3.30;;;;;;;3.51;77.92;101278.50;12791998;22;96552;-80
2023/01/28 04:49:30;;;;;;;4.32;2.88;;;;;;;3.50;77.52;101285.44;12792403;22;96743;-80
2023/01/28 04:54:33;;;;;;;6.07;3.87;;;;;;;3.44;78.43;101281.94;12793132;22;96659;-80
2023/01/28 04:59:36;;;;;;;4.97;3.30;;;;;;;3.34;78.74;101289.66;12793010;22;96728;-80
2023/01/28 05:04:41;;;;;;;3.60;2.88;;;;;;;3.39;78.03;101284.47;12793154;22;96556;-80
2023/01/28 05:09:44;;;;;;;6.37;3.47;;;;;;;3.36;77.74;101297.47;12792942;22;96491;-80
2023/01/28 05:14:47;;;;;;;6.53;3.30;;;;;;;3.34;78.05;101307.00;12792835;22;96515;-80
2023/01/28 05:19:51;;;;;;;5.55;3.20;;;;;;;3.46;77.26;101301.03;12795829;22;97035;-80
2023/01/28 05:24:55;;;;;;;5.53;3.30;;;;;;;3.29;78.29;101299.19;12795604;22;96567;-80
2023/01/28 05:29:58;;;;;;;4.97;3.35;;;;;;;3.27;78.28;101297.41;12795227;22;96669;-80
2023/01/28 05:35:02;;;;;;;6.68;3.55;;;;;;;3.29;78.03;101303.50;12793930;22;96673;-80
2023/01/28 05:40:07;;;;;;;4.27;3.03;;;;;;;3.20;78.81;101293.03;12795583;22;96580;-80
2023/01/28 05:45:11;;;;;;;4.07;3.13;;;;;;;3.25;78.96;101291.38;12795626;22;97368;-80
2023/01/28 05:50:16;;;;;;;5.35;3.30;;;;;;;3.24;78.79;101289.59;12795034;22;97083;-80
2023/01/28 05:55:19;;;;;;;;;;;;;;;3.12;79.56;101300.81;12795694;22;96583;-79
2023/01/28 06:00:23;;;;;;;5.47;3.58;;;;;;;2.98;79.49;101307.63;12795382;22;96642;-80
2023/01/28 06:05:27;;;;;;;4.85;3.45;;;;;;;2.91;80.23;101304.97;12795313;22;96905;-79
2023/01/28 06:10:31;;;;;;;6.17;3.57;;;;;;;2.76;81.06;101310.03;12795921;22;96596;-79
2023/01/28 06:15:34;;;;;;;4.43;3.47;;;;;;;2.86;80.35;101320.53;12794857;22;96713;-79
2023/01/28 06:20:38;;;;;;;4.70;2.83;;;;;;;2.96;79.61;101316.25;12794660;22;96576;-79
2023/01/28 06:25:42;;;;;;;6.13;3.50;;;;;;;2.78;80.58;101330.00;12793819;22;96594;-80
2023/01/28 06:30:48;;;;;;;5.65;2.97;;;;;;;2.66;81.78;101334.22;12794423;22;96614;-79
2023/01/28 06:35:53;;;;;;;5.35;3.15;;;;;;;2.75;80.67;101334.31;12795188;22;97034;-79
2023/01/28 06:40:57;;;;;;;4.20;2.80;;;;;;;2.78;80.43;101329.13;12794848;22;96949;-79
2023/01/28 06:46:00;;;;;;;4.95;3.30;;;;;;;2.74;80.64;101329.94;12795081;22;97238;-79
2023/01/28 06:51:05;;;;;;;4.63;2.92;;;;;;;2.70;80.42;101328.16;12794005;22;96593;-80
2023/01/28 06:56:09;;;;;;;3.95;3.00;;;;;;;2.74;80.17;101338.63;12794822;22;96532;-80
2023/01/28 07:01:12;;;;;;;4.30;3.13;;;;;;;2.73;80.32;101341.22;12795810;22;96925;-79
2023/01/28 07:06:16;;;;;;;4.45;3.17;;;;;;;2.67;80.53;101343.72;12794497;22;96619;-79
2023/01/28 07:11:20;;;;;;;6.20;3.63;;;;;;;2.59;81.00;101351.47;12794100;22;97613;-79
2023/01/28 07:16:23;;;;;;;6.00;4.03;;;;;;;2.50;81.92;101337.50;12792994;22;96574;-79
2023/01/28 07:21:27;;;;;;;5.57;3.30;;;;;;;2.58;81.01;101330.66;12794103;22;97014;-79
2023/01/28 07:26:31;;;;;;;5.63;3.47;;;;;;;2.61;80.88;101335.88;12794531;22;96675;-79
2023/01/28 07:31:34;;;;;;;4.88;2.97;;;;;;;2.67;80.62;101336.81;12794262;22;96592;-79
2023/01/28 07:36:39;;;;;;;4.97;3.05;;;;;;;2.70;80.51;101341.16;12794276;22;97315;-79
2023/01/28 07:41:42;;;;;;;3.70;3.20;;;;;;;2.79;80.55;101341.25;12793343;22;96634;-79
2023/01/28 07:46:45;;;;;;;4.43;2.95;;;;;;;2.80;80.40;101348.19;12793881;22;96680;-78
2023/01/28 07:51:50;;;;;;;4.32;3.50;;;;;;;2.72;80.84;101355.03;12794109;22;96749;-79
2023/01/28 07:56:53;;;;;;;6.30;3.97;;;;;;;2.64;81.25;101365.38;12794231;22;96577;-79
2023/01/28 08:01:56;;;;;;;5.68;4.18;;;;;;;2.72;81.08;101370.63;12794084;22;96506;-79
2023/01/28 08:07:00;;;;;;;5.50;3.85;;;;;;;2.76;80.82;101382.81;12792571;22;96525;-80
2023/01/28 08:12:04;;;;;;;4.67;3.63;;;;;;;2.82;80.75;101390.69;12793786;22;96633;-79
2023/01/28 08:17:07;;;;;;;5.38;4.00;;;;;;;2.75;80.63;101392.31;12793757;22;96900;-79
2023/01/28 08:22:12;;;;;;;5.80;4.43;;;;;;;2.75;81.23;101397.50;12793682;22;96857;-79
2023/01/28 08:27:15;;;;;;;7.83;4.97;;;;;;;2.74;80.82;101394.91;12793832;22;96614;-79
2023/01/28 08:32:18;;;;;;;8.30;4.93;;;;;;;2.64;81.50;101403.47;12793459;22;96607;-79
2023/01/28 08:37:22;;;;;;;20.63;5.65;;;;;;;2.67;81.62;101395.69;12793695;22;96946;-79
2023/01/28 08:42:26;;;;;;;10.90;5.60;;;;;;;2.64;82.07;101403.47;12794217;22;96735;-79
2023/01/28 08:47:29;;;;;;;6.18;4.20;;;;;;;2.78;81.69;101386.28;12793183;22;96561;-79
2023/01/28 08:52:33;;;;;;;8.90;5.50;;;;;;;2.93;81.52;101384.72;12794985;22;96814;-79
2023/01/28 08:57:36;;;;;;;6.73;4.17;;;;;;;3.14;81.28;101373.63;12794474;22;96528;-79
2023/01/28 09:02:40;;;;;;;6.43;4.22;;;;;;;3.33;81.04;101378.97;12795831;22;96621;-79
2023/01/28 09:07:45;;;;;;;8.35;4.68;;;;;;;3.53;80.72;101391.25;12795669;22;96931;-79
2023/01/28 09:12:48;;;;;;;;;;;;;;;3.65;81.09;101380.94;12796074;22;96543;-79
2023/01/28 09:17:58;;;;;;;5.80;4.47;;;;;;;3.95;79.14;101388.91;12795548;22;96773;-79
2023/01/28 09:23:03;;;;;;;6.80;4.97;;;;;;;4.16;79.07;101391.59;12795481;22;96844;-79
2023/01/28 09:28:06;;;;;;;7.13;4.97;;;;;;;4.25;78.64;101391.66;12795472;22;97126;-79
2023/01/28 09:33:09;;;;;;;9.45;5.57;;;;;;;4.49;78.40;101389.13;12796168;22;97020;-79
2023/01/28 09:38:14;;;;;;;8.07;5.40;;;;;;;4.83;78.19;101392.66;12795156;22;97344;-79
2023/01/28 09:43:50;;;;;;;7.90;5.57;;;;;;;5.03;77.14;101394.47;12795499;22;96517;-80
2023/01/28 09:48:53;;;;;;;6.95;5.45;;;;;;;5.17;76.23;101404.91;12784051;22;97079;-79
2023/01/28 09:54:04;;;;;;;9.30;6.13;;;;;;;5.31;75.41;101397.94;12795303;22;97021;-79
2023/01/28 09:59:18;;;;;;;9.38;6.28;;;;;;;5.49;74.82;101397.91;12795343;22;96620;-79
2023/01/28 10:04:31;;;;;;;21.38;9.43;;;;;;;5.67;74.56;101398.75;12794683;22;96485;-80
2023/01/28 10:09:45;;;;;;;23.60;10.05;;;;;;;5.85;74.41;101397.84;12794780;22;97471;-80
2023/01/28 10:14:58;;;;;;;14.20;8.23;;;;;;;6.08;74.38;101384.72;12795004;22;96616;-79
2023/01/28 10:20:06;;;;;;;10.95;6.35;;;;;;;6.43;72.51;101391.56;12794645;22;96539;-80
2023/01/28 10:25:19;;;;;;;9.80;6.40;;;;;;;6.44;71.80;101387.19;12795805;22;96843;-80
2023/01/28 10:30:25;;;;;;;11.05;6.30;;;;;;;6.59;70.49;101382.75;12794846;22;96541;-80
2023/01/28 10:35:29;;;;;;;7.53;5.15;;;;;;;6.79;68.66;101391.38;12794932;22;96651;-80
2023/01/28 10:40:34;;;;;;;8.37;4.90;;;;;;;6.89;66.61;101388.72;12793899;22;97378;-80
2023/01/28 10:45:42;;;;;;;7.28;4.18;;;;;;;7.06;66.22;101387.69;12794861;22;96697;-80
2023/01/28 10:50:52;;;;;;;8.50;5.47;;;;;;;7.24;65.44;101382.34;12793684;22;96627;-81
2023/01/28 10:56:00;;;;;;;9.13;6.45;;;;;;;7.29;65.99;101379.69;12794833;22;96603;-80
2023/01/28 11:01:06;;;;;;;10.13;6.63;;;;;;;7.38;65.16;101379.59;12794584;22;96577;-80
2023/01/28 11:06:25;;;;;;;11.65;7.10;;;;;;;7.46;63.77;101376.03;12794713;22;96501;-80
2023/01/28 11:11:30;;;;;;;11.02;6.57;;;;;;;7.73;64.35;101361.81;12794382;22;97509;-80
2023/01/28 11:16:33;;;;;;;12.18;7.43;;;;;;;7.96;63.73;101368.53;12794599;22;97457;-80
2023/01/28 11:21:37;;;;;;;10.50;5.95;;;;;;;8.12;63.04;101360.50;12794138;22;96638;-81
2023/01/28 11:26:45;;;;;;;9.85;5.80;;;;;;;8.43;62.41;101349.59;12794000;22;96506;-81
2023/01/28 11:31:49;;;;;;;6.95;4.20;;;;;;;8.52;60.61;101341.59;12792906;22;96571;-81
2023/01/28 11:36:54;;;;;;;4.93;3.20;;;;;;;8.57;58.22;101336.28;12794374;22;97011;-81
2023/01/28 11:42:13;;;;;;;6.72;3.42;;;;;;;8.68;56.44;101331.75;12794409;22;96594;-81
2023/01/28 11:47:35;;;;;;;4.20;2.80;;;;;;;8.88;55.13;101325.31;12794216;22;97187;-81
2023/01/28 11:52:51;;;;;;;7.65;4.35;;;;;;;9.08;56.97;101319.75;12793744;22;96658;-81
2023/01/28 11:58:22;;;;;;;5.85;3.70;;;;;;;9.26;55.73;101303.69;12794433;22;96911;-81
2023/01/28 12:03:42;;;;;;;5.65;3.53;;;;;;;9.35;54.12;101313.16;12794089;22;96945;-82
2023/01/28 12:08:56;;;;;;;6.82;4.80;;;;;;;9.44;55.67;101310.38;12794847;22;96563;-82
2023/01/28 12:14:10;;;;;;;7.38;4.30;;;;;;;9.49;55.36;101295.38;12793777;22;96773;-81
2023/01/28 12:19:33;;;;;;;7.43;4.47;;;;;;;9.60;55.38;101285.56;12793359;22;96822;-82
2023/01/28 12:24:51;;;;;;;7.47;4.38;;;;;;;9.76;55.47;101279.97;12791800;22;96582;-81
2023/01/28 12:30:04;;;;;;;5.53;4.25;;;;;;;9.79;55.62;101271.16;12793680;22;97050;-82
2023/01/28 12:35:35;;;;;;;5.30;4.10;;;;;;;9.85;55.09;101271.91;12793659;22;96622;-82
2023/01/28 12:41:09;;;;;;;10.18;6.28;;;;;;;10.21;53.70;101260.59;12767973;22;96883;-82
2023/01/28 12:46:26;;;;;;;6.70;4.68;;;;;;;10.53;52.63;101245.84;12793408;22;96608;-82
2023/01/28 12:51:36;;;;;;;7.75;4.82;;;;;;;10.81;51.94;101242.50;12792743;22;96661;-81
2023/01/28 12:56:43;;;;;;;8.57;4.85;;;;;;;11.05;51.69;101230.47;12793031;22;96622;-82
2023/01/28 13:01:54;;;;;;;6.95;4.80;;;;;;;11.04;49.34;101229.59;12794065;22;96672;-81
2023/01/28 13:07:02;;;;;;;5.75;3.47;;;;;;;11.32;49.00;101221.88;12792813;22;96613;-81
2023/01/28 13:12:06;;;;;;;5.38;3.30;;;;;;;11.39;47.60;101211.13;12793114;22;97009;-82
2023/01/28 13:17:12;;;;;;;6.60;3.58;;;;;;;11.76;47.72;101205.69;12791218;22;96607;-82
2023/01/28 13:22:28;;;;;;;4.10;2.90;;;;;;;11.98;44.92;101195.34;12792531;22;96892;-82
2023/01/28 13:27:31;;;;;;;4.95;2.60;;;;;;;12.52;45.16;101185.69;12792422;22;97086;-83
2023/01/28 13:32:36;;;;;;;3.83;2.50;;;;;;;12.76;43.33;101186.72;12792156;22;96733;-82
2023/01/28 13:37:45;;;;;;;4.40;2.83;;;;;;;13.10;43.72;101176.69;12793962;22;96903;-82
2023/01/28 13:42:59;;;;;;;5.53;3.20;;;;;;;13.01;42.65;101174.38;12795471;22;97155;-82
2023/01/28 13:48:22;;;;;;;4.88;3.30;;;;;;;13.87;41.11;101165.88;12795063;22;96625;-82
2023/01/28 13:53:39;;;;;;;6.10;3.75;;;;;;;15.80;38.57;101151.34;12795901;22;96813;-80
2023/01/28 13:59:15;;;;;;;5.00;3.58;;;;;;;17.09;36.64;101147.63;12795279;22;96537;-80
2023/01/28 14:04:45;;;;;;;5.10;3.72;;;;;;;17.51;34.52;101140.91;12785876;22;96595;-81
2023/01/28 14:10:08;;;;;;;5.53;3.42;;;;;;;17.20;34.41;101137.28;12793526;22;96680;-81
2023/01/28 14:15:39;;;;;;;3.97;3.25;;;;;;;18.06;32.94;101131.59;12795099;22;97079;-81
2023/01/28 14:20:45;;;;;;;4.65;3.30;;;;;;;17.71;32.82;101121.22;12795044;22;96847;-81
2023/01/28 14:26:01;;;;;;;4.25;3.45;;;;;;;17.36;33.07;101111.59;12795124;22;97661;-81
2023/01/28 14:31:09;;;;;;;4.90;3.60;;;;;;;17.62;33.03;101111.06;12794834;22;96608;-81
2023/01/28 14:36:15;;;;;;;4.25;3.45;;;;;;;17.55;33.85;101099.91;12794970;22;96533;-81
2023/01/28 14:41:25;;;;;;;5.00;3.90;;;;;;;17.82;32.37;101090.38;12794791;22;97089;-81
2023/01/28 14:46:37;;;;;;;5.47;4.10;;;;;;;18.04;32.28;101104.19;12795870;22;96612;-81
2023/01/28 14:52:11;;;;;;;5.45;4.20;;;;;;;17.94;32.08;101089.69;12794142;22;96582;-81
2023/01/28 14:57:44;;;;;;;6.57;3.73;;;;;;;18.47;30.93;101085.78;12794544;22;97240;-81
2023/01/28 15:02:48;;;;;;;5.47;3.88;;;;;;;18.58;31.51;101085.97;12769092;22;96748;-81
2023/01/28 15:07:53;;;;;;;5.80;3.80;;;;;;;18.26;31.81;101079.00;12794574;22;97040;-80
2023/01/28 15:13:00;;;;;;;5.38;3.65;;;;;;;18.46;32.08;101090.22;12794056;22;96743;-81
2023/01/28 15:18:07;;;;;;;5.53;3.65;;;;;;;18.50;32.48;101073.13;12794318;22;96576;-80
2023/01/28 15:23:16;;;;;;;4.82;3.40;;;;;;;18.16;31.21;101070.66;12794381;22;97026;-81
2023/01/28 15:28:26;;;;;;;4.60;3.40;;;;;;;18.33;31.61;101065.22;12794372;22;96637;-81
2023/01/28 15:33:29;;;;;;;4.35;3.30;;;;;;;18.30;31.98;101069.88;12794127;22;96673;-81
2023/01/28 15:38:34;;;;;;;4.30;3.10;;;;;;;18.32;31.55;101070.63;12795500;22;96870;-81
2023/01/28 15:43:39;;;;;;;3.20;2.33;;;;;;;18.58;31.69;101064.66;12794414;22;97019;-80
2023/01/28 15:48:46;;;;;;;4.40;2.70;;;;;;;18.47;31.38;101057.28;12793243;22;97399;-80
2023/01/28 15:53:53;;;;;;;7.05;3.83;;;;;;;18.92;31.70;101067.84;12792937;22;96589;-80
2023/01/28 15:59:07;;;;;;;7.57;4.63;;;;;;;18.90;31.31;101053.78;12794022;22;96936;-80
2023/01/28 16:04:23;;;;;;;6.47;4.63;;;;;;;18.56;31.20;101055.91;12793982;22;96813;-80
2023/01/28 16:09:30;;;;;;;7.32;4.60;;;;;;;18.40;32.06;101063.94;12794001;22;96954;-80
2023/01/28 16:14:42;;;;;;;7.72;4.85;;;;;;;18.83;31.58;101060.44;12793807;22;96579;-80
2023/01/28 16:19:48;;;;;;;6.97;4.35;;;;;;;18.50;32.08;101066.94;12793333;22;97089;-80
2023/01/28 16:24:54;;;;;;;7.25;5.07;;;;;;;18.28;32.38;101072.59;12793917;22;96626;-80
2023/01/28 16:29:57;;;;;;;6.63;4.80;;;;;;;18.01;33.07;101064.41;12794334;22;96579;-80
2023/01/28 16:35:02;;;;;;;8.65;6.13;;;;;;;17.19;34.25;101063.75;12793487;22;96634;-80
2023/01/28 16:40:09;;;;;;;8.23;5.28;;;;;;;16.62;35.72;101065.00;12793379;22;96829;-81
2023/01/28 16:45:18;;;;;;;7.20;4.90;;;;;;;16.26;36.35;101069.47;12792312;22;96597;-80
2023/01/28 16:50:21;;;;;;;8.65;5.47;;;;;;;16.13;35.88;101071.91;12792941;22;96563;-80
2023/01/28 16:55:26;;;;;;;14.00;8.80;;;;;;;15.68;38.65;101074.97;12793120;22;96833;-80
2023/01/28 17:00:32;;;;;;;13.35;8.68;;;;;;;15.21;42.33;101078.09;12793128;22;96608;-80
2023/01/28 17:05:35;;;;;;;20.98;12.23;;;;;;;14.67;42.96;101090.22;12793192;22;96680;-79
2023/01/28 17:10:39;;;;;;;20.52;13.45;;;;;;;14.35;43.30;101092.50;12792370;22;96927;-80
2023/01/28 17:15:42;;;;;;;22.35;13.90;;;;;;;13.67;45.88;101097.88;12795281;22;96535;-81
2023/01/28 17:20:46;;;;;;;28.15;18.02;;;;;;;12.96;49.05;101104.97;12796388;22;96816;-81
2023/01/28 17:25:50;;;;;;;23.85;15.30;;;;;;;12.54;49.49;101102.03;12795569;22;96724;-81
2023/01/28 17:30:54;;;;;;;31.52;17.98;;;;;;;12.28;49.59;101105.53;12795164;22;96587;-81
2023/01/28 17:35:57;;;;;;;26.15;16.65;;;;;;;11.92;51.09;101108.50;12794308;22;97255;-81
2023/01/28 17:41:03;;;;;;;21.50;14.02;;;;;;;11.61;52.44;101123.53;12794484;22;96601;-81
2023/01/28 17:46:11;;;;;;;19.98;15.05;;;;;;;11.31;53.07;101117.38;12795168;22;96634;-81
2023/01/28 17:51:16;;;;;;;22.52;14.73;;;;;;;11.09;54.08;101119.78;12795143;22;96560;-81
2023/01/28 17:56:22;;;;;;;34.83;20.25;;;;;;;10.89;53.50;101119.41;12795266;22;96680;-81
2023/01/28 18:01:26;;;;;;;32.13;20.38;;;;;;;10.43;56.12;101129.44;12795529;22;97257;-81
2023/01/28 18:06:31;;;;;;;30.80;19.63;;;;;;;10.21;56.56;101128.25;12795102;22;97038;-81
2023/01/28 18:11:35;;;;;;;29.55;20.33;;;;;;;10.06;56.85;101136.47;12796062;22;96876;-81
2023/01/28 18:16:39;;;;;;;36.70;21.27;;;;;;;10.09;56.79;101142.53;12794742;22;96728;-81
2023/01/28 18:21:42;;;;;;;41.40;24.92;;;;;;;10.05;56.55;101151.41;12794744;22;96751;-81
2023/01/28 18:26:58;;;;;;;37.92;23.05;;;;;;;9.91;57.15;101140.34;12792834;22;96543;-81
2023/01/28 18:32:03;;;;;;;36.17;23.33;;;;;;;9.75;57.93;101154.72;12794847;22;96658;-81
2023/01/28 18:37:07;;;;;;;44.40;26.00;;;;;;;9.67;58.07;101156.66;12794726;22;96566;-81
2023/01/28 18:42:12;;;;;;;41.05;23.75;;;;;;;9.51;57.94;101154.38;12794872;22;96601;-82
2023/01/28 18:47:16;;;;;;;37.10;23.52;;;;;;;9.45;58.01;101167.66;12794567;22;96800;-81
2023/01/28 18:52:19;;;;;;;41.70;22.63;;;;;;;9.43;58.56;101169.44;12794596;22;96587;-81
2023/01/28 18:57:24;;;;;;;34.97;21.27;;;;;;;9.20;59.63;101174.22;12795123;22;96792;-80
2023/01/28 19:02:27;;;;;;;33.07;21.20;;;;;;;9.04;59.99;101179.78;12795666;22;96626;-81
2023/01/28 19:07:30;;;;;;;42.17;24.48;;;;;;;8.99;60.20;101179.00;12794487;22;96621;-81
2023/01/28 19:12:35;;;;;;;36.72;21.25;;;;;;;9.01;59.90;101181.59;12794174;22;96638;-81
2023/01/28 19:17:38;;;;;;;42.83;23.23;;;;;;;8.87;60.67;101181.84;12792691;22;96784;-81
2023/01/28 19:22:41;;;;;;;37.10;23.67;;;;;;;8.66;62.00;101195.34;12794396;22;96981;-81
2023/01/28 19:27:46;;;;;;;37.28;21.75;;;;;;;8.69;61.79;101200.53;12794141;22;96472;-81
2023/01/28 19:32:49;;;;;;;33.47;20.25;;;;;;;8.69;61.66;101197.91;12794388;22;96658;-80
2023/01/28 19:37:52;;;;;;;33.13;19.85;;;;;;;8.60;61.86;101205.09;12794317;22;96882;-81
2023/01/28 19:42:58;;;;;;;33.90;20.40;;;;;;;8.60;62.27;101205.09;12794427;22;96573;-81
2023/01/28 19:48:02;;;;;;;33.20;19.40;;;;;;;8.49;62.15;101210.50;12793847;22;96898;-81
2023/01/28 19:53:05;;;;;;;30.45;19.05;;;;;;;8.46;62.50;101222.78;12794911;22;96869;-81
2023/01/28 19:58:10;;;;;;;33.67;19.35;;;;;;;8.38;62.86;101222.91;12793887;22;96619;-81
2023/01/28 20:03:13;;;;;;;37.67;22.08;;;;;;;7.99;64.51;101231.34;12793617;22;96620;-81
2023/01/28 20:08:16;;;;;;;37.08;22.45;;;;;;;7.85;65.46;101234.16;12792623;22;96521;-81
2023/01/28 20:13:21;;;;;;;37.60;23.13;;;;;;;7.91;65.47;101234.06;12793603;22;96585;-81
2023/01/28 20:18:25;;;;;;;38.47;22.63;;;;;;;7.83;65.35;101237.66;12794010;22;96972;-81
2023/01/28 20:23:28;;;;;;;39.72;24.48;;;;;;;7.66;66.95;101239.63;12793247;22;96690;-81
2023/01/28 20:28:34;;;;;;;38.13;24.23;;;;;;;7.65;66.53;101250.97;12793701;22;96539;-81
2023/01/28 20:33:39;;;;;;;39.63;25.37;;;;;;;7.63;66.60;101251.00;12793547;22;96677;-81
2023/01/28 20:38:45;;;;;;;40.25;25.88;;;;;;;7.49;67.55;101263.38;12793394;22;96572;-81
2023/01/28 20:43:51;;;;;;;43.38;26.65;;;;;;;7.25;69.15;101262.81;12794388;22;96615;-81
2023/01/28 20:48:55;;;;;;;44.38;26.52;;;;;;;7.15;69.78;101269.88;12792533;22;96613;-81
2023/01/28 20:54:00;;;;;;;43.33;28.23;;;;;;;7.07;69.91;101282.16;12793206;22;96910;-81
2023/01/28 20:59:06;;;;;;;41.37;26.93;;;;;;;6.95;70.72;101279.66;12791941;22;96562;-81
2023/01/28 21:04:09;;;;;;;40.75;25.98;;;;;;;6.92;70.15;101279.69;12792934;22;96586;-81
2023/01/28 21:09:12;;;;;;;42.03;27.15;;;;;;;6.76;70.62;101276.31;12792503;22;96556;-81
2023/01/28 21:14:17;;;;;;;45.30;28.10;;;;;;;6.67;72.03;101285.94;12793209;22;96811;-81
2023/01/28 21:19:20;;;;;;;38.93;25.00;;;;;;;6.58;72.55;101289.50;12792425;22;97285;-81
2023/01/28 21:24:23;;;;;;;43.85;24.42;;;;;;;6.60;71.44;101277.28;12792457;22;96484;-81
2023/01/28 21:29:28;;;;;;;40.90;24.65;;;;;;;6.51;71.87;101277.34;12792369;22;96639;-81
2023/01/28 21:34:31;;;;;;;41.23;25.77;;;;;;;6.56;71.65;101275.56;12793344;22;96615;-80
2023/01/28 21:39:34;;;;;;;34.55;23.75;;;;;;;6.62;71.89;101274.66;12792400;22;96557;-80
2023/01/28 21:44:39;;;;;;;34.75;22.88;;;;;;;6.60;70.96;101279.91;12792256;22;96610;-81
2023/01/28 21:49:42;;;;;;;34.37;21.93;;;;;;;6.49;71.78;101284.31;12790610;22;96857;-81
2023/01/28 21:54:45;;;;;;;31.40;20.27;;;;;;;6.50;70.72;101291.31;12791964;22;96599;-81
2023/01/28 21:59:50;;;;;;;35.45;22.13;;;;;;;6.55;70.62;101294.75;12793312;22;96573;-81
2023/01/28 22:04:53;;;;;;;34.67;22.83;;;;;;;6.56;70.49;101301.72;12794920;22;96551;-81
2023/01/28 22:09:56;;;;;;;37.55;24.13;;;;;;;6.50;71.74;101293.06;12794952;22;96504;-81
2023/01/28 22:15:01;;;;;;;40.35;24.25;;;;;;;6.37;72.68;101289.63;12795116;22;96577;-80
2023/01/28 22:20:05;;;;;;;34.97;22.63;;;;;;;6.29;72.58;101293.19;12794459;22;96791;-80
2023/01/28 22:25:09;;;;;;;31.77;21.67;;;;;;;6.23;72.70;101298.47;12796121;22;96958;-80
2023/01/28 22:30:14;;;;;;;33.78;21.33;;;;;;;6.21;73.55;101306.28;12794824;22;97048;-80
2023/01/28 22:35:18;;;;;;;34.95;20.52;;;;;;;6.31;72.72;101305.38;12794726;22;96976;-80
2023/01/28 22:40:21;;;;;;;29.90;20.05;;;;;;;6.16;73.06;101320.25;12793648;22;96588;-80
2023/01/28 22:45:25;;;;;;;32.63;20.42;;;;;;;6.17;73.38;101312.41;12794496;22;96746;-80
2023/01/28 22:50:29;;;;;;;33.63;19.85;;;;;;;6.16;72.84;101325.50;12794045;22;96780;-80
2023/01/28 22:55:32;;;;;;;34.03;20.77;;;;;;;6.11;73.25;101325.50;12794570;22;96881;-80
2023/01/28 23:00:37;;;;;;;31.23;19.65;;;;;;;6.15;73.50;101327.22;12794606;22;96515;-80
2023/01/28 23:05:40;;;;;;;32.53;18.70;;;;;;;6.09;73.25;101327.25;12794562;22;96619;-80
2023/01/28 23:10:48;;;;;;;26.13;18.55;;;;;;;6.08;74.01;101340.31;12793961;22;96519;-80
2023/01/28 23:26:37;;;;;;;27.50;17.80;;;;;;;6.23;72.81;101350.72;12794147;22;96464;-81
2023/01/28 23:31:45;;;;;;;27.17;16.52;;;;;;;6.24;72.50;101358.56;12793166;22;96584;-80
2023/01/28 23:36:49;;;;;;;21.42;13.57;;;;;;;6.25;72.19;101354.16;12794042;22;96984;-80
2023/01/28 23:41:52;;;;;;;27.00;19.15;;;;;;;6.34;71.64;101361.97;12794225;22;96620;-81
2023/01/28 23:46:57;;;;;;;26.95;20.38;;;;;;;6.36;71.34;101368.94;12794203;22;96523;-80
2023/01/28 23:52:00;;;;;;;30.40;24.07;;;;;;;6.43;70.73;101372.41;12794023;22;96680;-81
2023/01/28 23:57:04;;;;;;;25.38;15.45;;;;;;;6.39;71.06;101373.28;12794333;22;96855;-80
